Time;durP1;ratioP1;P1;durP2;ratioP2;P2;SDS_P1;SDS_P2;PMS_P1;PMS_P2;Temp;Humidity;BMP_temperature;BMP_pressure;BME280_temperature;BME280_humidity;BME280_pressure;Samples;Min_cycle;Max_cycle;Signal;HPM_P1;HPM_P2
2021/11/25 00:00:36;;;;;;;19.83;16.47;;;3.10;54.70;;;;;;4976446;28;20410;-84
2021/11/25 00:03:02;;;;;;;17.53;15.23;;;3.20;54.70;;;;;;4975327;28;20958;-85
2021/11/25 00:05:28;;;;;;;18.30;15.50;;;3.20;53.70;;;;;;4975542;28;20166;-85
2021/11/25 00:07:54;;;;;;;18.47;15.57;;;3.20;54.50;;;;;;4974948;28;20171;-84
2021/11/25 00:10:20;;;;;;;20.17;15.83;;;3.30;54.10;;;;;;4973997;28;21067;-84
2021/11/25 00:12:47;;;;;;;19.40;15.20;;;3.10;53.90;;;;;;4973213;28;20275;-84
2021/11/25 00:15:13;;;;;;;17.77;14.53;;;3.10;54.60;;;;;;4974308;28;20438;-84
2021/11/25 00:17:39;;;;;;;15.53;13.83;;;3.10;54.50;;;;;;4974436;28;20414;-84
2021/11/25 00:20:09;;;;;;;20.90;15.60;;;3.10;54.60;;;;;;4974527;28;20418;-86
2021/11/25 00:22:35;;;;;;;16.40;14.20;;;3.20;54.70;;;;;;4973088;28;20473;-86
2021/11/25 00:25:01;;;;;;;17.37;14.97;;;3.20;54.90;;;;;;4973939;28;20402;-85
2021/11/25 00:27:27;;;;;;;19.50;15.20;;;3.00;55.10;;;;;;4972368;28;20508;-85
2021/11/25 00:29:53;;;;;;;18.03;14.57;;;3.10;54.90;;;;;;4972885;28;20453;-85
2021/11/25 00:32:19;;;;;;;17.60;15.53;;;3.10;54.80;;;;;;4973728;28;20183;-85
2021/11/25 00:34:44;;;;;;;17.33;14.20;;;3.10;54.70;;;;;;4972604;28;20174;-84
2021/11/25 00:37:10;;;;;;;21.87;15.37;;;3.10;54.30;;;;;;4972619;28;20429;-84
2021/11/25 00:39:36;;;;;;;17.10;14.43;;;3.10;54.60;;;;;;4972750;28;20507;-84
2021/11/25 00:42:02;;;;;;;18.80;15.27;;;3.10;54.70;;;;;;4973032;28;20213;-84
2021/11/25 00:44:28;;;;;;;19.37;14.63;;;3.00;54.60;;;;;;4973715;28;20969;-86
2021/11/25 00:46:53;;;;;;;19.73;16.10;;;3.00;55.20;;;;;;4971969;28;20453;-84
2021/11/25 00:49:19;;;;;;;18.77;14.73;;;3.00;55.20;;;;;;4972294;28;20260;-85
2021/11/25 00:51:45;;;;;;;18.27;14.87;;;3.00;56.00;;;;;;4974050;28;20178;-85
2021/11/25 00:54:10;;;;;;;19.83;16.50;;;3.00;55.10;;;;;;4973421;28;20265;-85
2021/11/25 00:56:36;;;;;;;18.40;15.80;;;3.00;55.20;;;;;;4973112;28;20293;-84
2021/11/25 00:59:02;;;;;;;16.90;15.07;;;3.00;55.30;;;;;;4971425;28;20182;-84
2021/11/25 01:01:28;;;;;;;18.77;15.53;;;3.10;54.60;;;;;;4971225;28;20266;-85
2021/11/25 01:03:54;;;;;;;16.77;14.97;;;3.20;54.30;;;;;;4973538;28;20171;-84
2021/11/25 01:06:19;;;;;;;21.07;15.30;;;3.10;54.40;;;;;;4971416;28;20509;-84
2021/11/25 01:08:45;;;;;;;19.53;16.23;;;3.20;55.20;;;;;;4972553;28;20178;-85
2021/11/25 01:11:11;;;;;;;17.37;15.00;;;3.20;54.80;;;;;;4971578;28;20170;-84
2021/11/25 01:13:37;;;;;;;15.83;13.50;;;3.10;54.80;;;;;;4971827;28;20182;-85
2021/11/25 01:16:03;;;;;;;16.37;14.63;;;3.20;55.10;;;;;;4971862;28;20783;-85
2021/11/25 01:18:29;;;;;;;17.83;15.60;;;3.20;54.50;;;;;;4971558;28;20461;-85
2021/11/25 01:20:55;;;;;;;18.47;14.97;;;3.10;54.80;;;;;;4971304;28;20545;-84
2021/11/25 01:23:26;;;;;;;20.47;16.17;;;3.10;54.60;;;;;;4972443;28;20199;-84
2021/11/25 01:25:54;;;;;;;17.42;15.20;;;3.00;55.10;;;;;;4970145;28;20910;-85
2021/11/25 01:28:21;;;;;;;20.73;16.70;;;3.00;55.90;;;;;;4972951;28;20171;-85
2021/11/25 01:30:50;;;;;;;19.63;15.53;;;3.00;55.10;;;;;;4973179;28;20457;-84
2021/11/25 01:33:17;;;;;;;19.93;16.10;;;3.00;55.20;;;;;;4971725;28;20532;-85
2021/11/25 01:35:43;;;;;;;21.30;16.27;;;3.10;55.20;;;;;;4973415;28;20421;-85
2021/11/25 01:38:10;;;;;;;19.10;15.27;;;3.10;55.40;;;;;;4973086;28;20772;-85
2021/11/25 01:40:37;;;;;;;21.77;16.70;;;3.20;55.30;;;;;;4972872;28;20835;-84
2021/11/25 01:43:04;;;;;;;19.33;16.47;;;3.20;55.00;;;;;;4972112;28;20466;-84
2021/11/25 01:45:30;;;;;;;20.80;17.60;;;3.10;55.10;;;;;;4972132;28;20416;-84
2021/11/25 01:47:57;;;;;;;20.20;15.60;;;3.00;54.70;;;;;;4972468;28;20481;-84
2021/11/25 01:50:24;;;;;;;16.60;14.43;;;3.10;55.30;;;;;;4972240;28;20795;-84
2021/11/25 01:52:50;;;;;;;18.60;15.13;;;3.00;54.80;;;;;;4972351;28;20451;-84
2021/11/25 01:55:18;;;;;;;19.33;15.97;;;3.10;55.80;;;;;;4970736;28;20573;-84
2021/11/25 01:57:44;;;;;;;17.80;15.03;;;3.10;55.60;;;;;;4970799;28;20595;-85
2021/11/25 02:00:34;;;;;;;19.57;17.00;;;3.00;54.60;;;;;;4970782;28;20765;-84
2021/11/25 02:03:03;;;;;;;19.40;15.97;;;3.00;55.40;;;;;;4970942;28;20490;-84
2021/11/25 02:05:29;;;;;;;19.13;17.03;;;3.10;54.80;;;;;;4971809;28;20418;-85
2021/11/25 02:07:54;;;;;;;17.20;15.37;;;3.10;54.60;;;;;;4971041;28;20504;-85
2021/11/25 02:10:21;;;;;;;19.40;16.87;;;3.10;54.90;;;;;;4970958;28;20477;-84
2021/11/25 02:12:47;;;;;;;17.90;15.10;;;3.10;54.70;;;;;;4971596;28;20418;-85
2021/11/25 02:15:14;;;;;;;19.60;16.20;;;3.00;55.10;;;;;;4970119;28;20913;-85
2021/11/25 02:17:40;;;;;;;22.93;16.30;;;3.10;55.20;;;;;;4973201;28;20230;-83
2021/11/25 02:20:08;;;;;;;18.70;16.70;;;3.10;55.20;;;;;;4972386;28;20418;-85
2021/11/25 02:22:34;;;;;;;18.03;14.60;;;3.20;55.30;;;;;;4971810;28;20469;-84
2021/11/25 02:25:00;;;;;;;17.87;15.70;;;3.10;54.80;;;;;;4970212;28;20452;-83
2021/11/25 02:27:26;;;;;;;16.10;14.40;;;3.00;55.70;;;;;;4969577;28;20899;-82
2021/11/25 02:29:52;;;;;;;21.07;16.43;;;3.00;55.40;;;;;;4969669;28;20186;-83
2021/11/25 02:32:45;;;;;;;18.37;15.50;;;3.00;55.50;;;;;;4969934;28;20189;-83
2021/11/25 02:35:32;;;;;;;20.57;16.60;;;3.10;54.80;;;;;;4968820;28;20578;-81
2021/11/25 02:37:58;;;;;;;19.77;14.70;;;3.00;54.80;;;;;;4969290;28;20425;-82
2021/11/25 02:40:32;;;;;;;19.07;16.50;;;3.00;55.30;;;;;;4969462;28;20430;-82
2021/11/25 02:43:03;;;;;;;20.93;16.93;;;3.10;55.30;;;;;;4969860;28;20923;-82
2021/11/25 02:45:31;;;;;;;17.43;15.53;;;3.10;55.20;;;;;;4969441;28;20549;-82
2021/11/25 02:47:57;;;;;;;19.37;16.07;;;3.00;54.80;;;;;;4970781;28;20549;-83
2021/11/25 02:50:24;;;;;;;21.73;16.53;;;2.90;55.10;;;;;;4969291;28;20509;-83
2021/11/25 02:52:51;;;;;;;19.00;16.03;;;2.90;55.50;;;;;;4971160;28;20174;-81
2021/11/25 02:55:18;;;;;;;20.37;17.90;;;2.90;56.00;;;;;;4965079;28;20454;-82
2021/11/25 02:57:44;;;;;;;18.67;15.80;;;2.90;56.10;;;;;;4957249;28;20955;-82
2021/11/25 03:00:38;;;;;;;19.50;16.70;;;2.90;56.00;;;;;;4984183;28;20788;-82
2021/11/25 03:03:07;;;;;;;19.43;16.20;;;2.90;56.10;;;;;;4970393;28;21028;-82
2021/11/25 03:05:36;;;;;;;21.23;17.50;;;3.00;55.70;;;;;;4971446;28;20917;-85
2021/11/25 03:08:05;;;;;;;22.23;18.17;;;3.00;55.50;;;;;;4969970;28;20763;-85
2021/11/25 03:10:36;;;;;;;19.00;17.00;;;3.00;55.20;;;;;;4971629;28;20406;-85
2021/11/25 03:13:03;;;;;;;18.00;15.60;;;3.00;55.40;;;;;;4970262;28;20855;-85
2021/11/25 03:15:33;;;;;;;19.40;17.27;;;3.00;55.40;;;;;;4970056;28;20801;-84
2021/11/25 03:17:59;;;;;;;19.10;16.53;;;2.90;55.20;;;;;;4971194;28;20414;-84
2021/11/25 03:20:25;;;;;;;18.50;15.80;;;2.90;55.70;;;;;;4971108;28;20449;-85
2021/11/25 03:22:51;;;;;;;20.00;16.57;;;2.90;56.00;;;;;;4974350;28;20473;-85
2021/11/25 03:25:17;;;;;;;21.10;17.40;;;2.90;56.00;;;;;;4979208;28;20185;-85
2021/11/25 03:27:42;;;;;;;22.33;16.60;;;2.90;56.10;;;;;;4973996;28;20418;-84
2021/11/25 03:30:09;;;;;;;18.17;15.27;;;3.00;56.10;;;;;;4975214;28;20582;-84
2021/11/25 03:32:35;;;;;;;19.93;16.77;;;3.00;56.10;;;;;;4975421;28;20542;-84
2021/11/25 03:35:01;;;;;;;19.50;16.83;;;3.00;55.40;;;;;;4976028;28;20414;-86
2021/11/25 03:37:27;;;;;;;21.03;17.10;;;3.00;56.10;;;;;;4973208;28;20217;-84
2021/11/25 03:39:52;;;;;;;19.83;16.87;;;3.00;56.00;;;;;;4973660;28;20798;-86
2021/11/25 03:42:18;;;;;;;19.30;16.47;;;2.90;55.40;;;;;;4974932;28;20218;-86
2021/11/25 03:44:45;;;;;;;19.27;16.23;;;2.90;55.60;;;;;;4973043;28;20185;-84
2021/11/25 03:47:12;;;;;;;22.37;16.53;;;2.90;56.00;;;;;;4972796;28;20190;-85
2021/11/25 03:49:38;;;;;;;20.77;16.03;;;2.90;56.10;;;;;;4974345;28;20418;-84
2021/11/25 03:52:04;;;;;;;21.57;17.37;;;2.90;56.00;;;;;;4973184;28;20928;-85
2021/11/25 03:54:30;;;;;;;20.80;17.00;;;2.90;56.00;;;;;;4972332;28;20922;-84
2021/11/25 03:56:55;;;;;;;20.97;17.43;;;2.90;56.00;;;;;;4973815;28;20496;-84
2021/11/25 03:59:21;;;;;;;22.90;17.80;;;2.90;56.00;;;;;;4972815;28;20242;-85
2021/11/25 04:01:47;;;;;;;18.17;15.90;;;3.00;56.10;;;;;;4972177;28;20639;-85
2021/11/25 04:04:12;;;;;;;20.20;17.80;;;3.00;55.70;;;;;;4971258;28;20510;-85
2021/11/25 04:06:38;;;;;;;19.97;16.73;;;3.00;56.00;;;;;;4973220;28;20783;-82
2021/11/25 04:09:04;;;;;;;21.83;15.43;;;2.90;56.10;;;;;;4973437;28;20677;-83
2021/11/25 04:11:30;;;;;;;19.83;15.63;;;2.90;55.70;;;;;;4972607;28;20175;-82
2021/11/25 04:13:57;;;;;;;20.20;17.30;;;2.90;56.00;;;;;;4972713;28;20852;-82
2021/11/25 04:16:22;;;;;;;19.50;17.43;;;2.80;56.00;;;;;;4973490;28;20183;-85
2021/11/25 04:18:48;;;;;;;22.10;18.13;;;2.80;56.00;;;;;;4973376;28;20509;-85
2021/11/25 04:21:14;;;;;;;21.00;17.83;;;2.90;56.10;;;;;;4971615;28;20201;-84
2021/11/25 04:23:40;;;;;;;22.13;17.73;;;2.80;56.00;;;;;;4971495;28;20210;-82
2021/11/25 04:26:05;;;;;;;20.50;17.53;;;2.80;56.00;;;;;;4971095;28;20179;-83
2021/11/25 04:28:31;;;;;;;19.80;15.67;;;2.80;56.20;;;;;;4973079;28;20174;-83
2021/11/25 04:36:33;;;;;;;22.07;17.53;;;2.90;56.10;;;;;;4972750;28;20433;-82
2021/11/25 04:38:59;;;;;;;21.10;16.83;;;2.90;56.10;;;;;;4970879;28;20449;-83
2021/11/25 04:41:25;;;;;;;20.77;17.00;;;2.90;56.10;;;;;;4972443;28;20182;-83
2021/11/25 04:43:50;;;;;;;20.60;16.60;;;2.90;56.20;;;;;;4970786;28;20826;-83
2021/11/25 04:46:16;;;;;;;22.60;18.53;;;2.80;56.70;;;;;;4972004;28;20252;-83
2021/11/25 04:48:42;;;;;;;22.10;18.00;;;2.80;56.00;;;;;;4971690;28;20185;-82
2021/11/25 04:51:07;;;;;;;24.20;18.20;;;2.70;56.40;;;;;;4970936;28;20186;-84
2021/11/25 04:53:33;;;;;;;24.10;19.23;;;2.70;56.50;;;;;;4971032;28;20182;-81
2021/11/25 04:55:59;;;;;;;22.80;17.70;;;2.70;56.50;;;;;;4972596;28;20266;-83
2021/11/25 04:58:24;;;;;;;23.43;17.97;;;2.70;56.40;;;;;;4971374;28;20189;-82
2021/11/25 05:00:50;;;;;;;22.77;16.53;;;2.80;56.50;;;;;;4972100;28;20498;-85
2021/11/25 05:03:16;;;;;;;22.13;17.83;;;2.80;56.20;;;;;;4971027;28;20225;-83
2021/11/25 05:05:43;;;;;;;22.60;17.40;;;2.80;56.60;;;;;;4972647;28;20418;-82
2021/11/25 05:08:09;;;;;;;22.70;16.70;;;2.70;56.40;;;;;;4972413;28;20194;-84
2021/11/25 05:10:35;;;;;;;21.67;17.97;;;2.70;56.20;;;;;;4972542;28;20441;-83
2021/11/25 05:13:01;;;;;;;21.63;18.20;;;2.70;56.80;;;;;;4972037;28;20425;-83
2021/11/25 05:15:26;;;;;;;20.20;18.00;;;2.80;56.80;;;;;;4970513;28;20432;-83
2021/11/25 05:17:52;;;;;;;19.30;17.10;;;2.80;56.50;;;;;;4971563;28;20454;-79
2021/11/25 05:20:18;;;;;;;21.23;18.10;;;2.70;56.50;;;;;;4971846;28;20198;-82
2021/11/25 05:22:44;;;;;;;20.00;15.90;;;2.60;56.70;;;;;;4971330;28;20217;-82
2021/11/25 05:25:12;;;;;;;21.70;18.27;;;2.60;57.30;;;;;;4971983;28;20823;-82
2021/11/25 05:27:37;;;;;;;21.93;17.87;;;2.70;56.90;;;;;;4972248;28;20193;-83
2021/11/25 05:30:05;;;;;;;22.27;18.50;;;2.70;57.10;;;;;;4970539;28;20919;-85
2021/11/25 05:32:31;;;;;;;20.60;18.03;;;2.60;56.50;;;;;;4970394;28;20179;-83
2021/11/25 05:34:57;;;;;;;22.07;18.07;;;2.70;56.20;;;;;;4970763;28;20421;-84
2021/11/25 05:37:22;;;;;;;21.73;17.97;;;2.70;56.90;;;;;;4972111;28;20185;-84
2021/11/25 05:39:48;;;;;;;22.17;19.00;;;2.60;56.50;;;;;;4972535;28;20217;-84
2021/11/25 05:42:14;;;;;;;22.00;18.57;;;2.60;56.80;;;;;;4972292;28;20212;-83
2021/11/25 05:44:40;;;;;;;21.57;18.53;;;2.60;57.20;;;;;;4972881;28;20254;-82
2021/11/25 05:47:06;;;;;;;20.90;18.55;;;2.60;56.90;;;;;;4971627;28;20188;-84
2021/11/25 05:49:32;;;;;;;23.73;18.58;;;2.50;57.00;;;;;;4972479;28;20228;-84
2021/11/25 05:51:58;;;;;;;20.40;18.30;;;2.50;57.30;;;;;;4971813;28;20200;-84
2021/11/25 05:54:23;;;;;;;21.47;19.07;;;2.60;57.00;;;;;;4970913;28;20426;-82
2021/11/25 05:56:49;;;;;;;21.67;18.40;;;2.60;57.20;;;;;;4972722;28;20589;-84
2021/11/25 05:59:15;;;;;;;24.13;21.10;;;2.60;56.90;;;;;;4969492;28;20192;-83
2021/11/25 06:01:40;;;;;;;22.27;18.80;;;2.50;56.80;;;;;;4972435;28;20179;-84
2021/11/25 06:04:06;;;;;;;21.70;18.33;;;2.60;57.10;;;;;;4972770;28;20229;-83
2021/11/25 06:06:32;;;;;;;19.00;17.00;;;2.60;57.10;;;;;;4973124;28;20166;-83
2021/11/25 06:08:57;;;;;;;23.10;20.20;;;2.50;56.60;;;;;;4972857;28;20181;-84
2021/11/25 06:11:23;;;;;;;22.27;17.87;;;2.60;57.10;;;;;;4973039;28;20213;-84
2021/11/25 06:13:49;;;;;;;22.20;18.17;;;2.50;57.30;;;;;;4972908;28;20186;-83
2021/11/25 06:16:15;;;;;;;22.40;18.00;;;2.60;57.60;;;;;;4972610;28;20178;-83
2021/11/25 06:18:40;;;;;;;21.23;19.03;;;2.60;57.10;;;;;;4972616;28;20435;-82
2021/11/25 06:21:06;;;;;;;21.23;17.90;;;2.60;58.00;;;;;;4973213;28;20793;-83
2021/11/25 06:23:32;;;;;;;21.07;18.53;;;2.60;57.60;;;;;;4971861;28;20268;-81
2021/11/25 06:25:58;;;;;;;20.20;17.47;;;2.60;56.50;;;;;;4973014;28;20175;-83
2021/11/25 06:28:24;;;;;;;20.70;18.47;;;2.60;57.40;;;;;;4973481;28;20415;-82
2021/11/25 06:30:50;;;;;;;21.57;17.17;;;2.70;56.90;;;;;;4973423;28;20171;-82
2021/11/25 06:33:15;;;;;;;20.00;16.70;;;2.60;56.60;;;;;;4973121;28;20747;-82
2021/11/25 06:35:41;;;;;;;20.80;18.17;;;2.60;57.30;;;;;;4971637;28;20521;-82
2021/11/25 06:38:07;;;;;;;22.40;17.20;;;2.60;57.20;;;;;;4972958;28;20185;-82
2021/11/25 06:40:34;;;;;;;22.00;17.77;;;2.60;56.80;;;;;;4973284;28;20249;-84
2021/11/25 06:43:02;;;;;;;19.50;16.13;;;2.70;56.80;;;;;;4971687;28;20210;-85
2021/11/25 06:45:28;;;;;;;21.10;17.23;;;2.70;56.80;;;;;;4973067;28;20411;-83
2021/11/25 06:47:54;;;;;;;21.70;16.93;;;2.70;56.50;;;;;;4971832;28;20465;-83
2021/11/25 06:50:22;;;;;;;19.77;16.57;;;2.60;55.80;;;;;;4973398;28;20182;-82
2021/11/25 06:52:48;;;;;;;22.80;18.53;;;2.60;57.10;;;;;;4972861;28;20472;-82
2021/11/25 06:55:16;;;;;;;21.80;18.47;;;2.60;57.00;;;;;;4972083;28;20429;-82
2021/11/25 06:57:47;;;;;;;21.93;17.07;;;2.60;57.30;;;;;;4971254;28;20425;-82
2021/11/25 07:00:15;;;;;;;18.98;15.80;;;2.60;57.00;;;;;;4971888;28;20426;-83
2021/11/25 07:02:41;;;;;;;21.60;17.97;;;2.70;56.60;;;;;;4971442;28;20202;-83
2021/11/25 07:05:08;;;;;;;21.23;17.50;;;2.70;57.10;;;;;;4971360;28;20418;-82
2021/11/25 07:07:34;;;;;;;22.73;18.10;;;2.70;56.30;;;;;;4970670;28;20258;-82
2021/11/25 07:10:00;;;;;;;22.33;17.77;;;2.60;57.00;;;;;;4987664;28;20410;-82
2021/11/25 07:12:26;;;;;;;20.60;17.77;;;2.50;57.80;;;;;;4973256;28;20917;-82
2021/11/25 07:14:52;;;;;;;20.00;16.90;;;2.60;58.00;;;;;;4972829;28;20411;-82
2021/11/25 07:17:17;;;;;;;22.80;17.10;;;2.60;57.50;;;;;;4972914;28;20186;-83
2021/11/25 07:19:43;;;;;;;25.97;19.63;;;2.60;57.70;;;;;;4971855;28;20281;-83
2021/11/25 07:22:09;;;;;;;25.10;18.47;;;2.70;57.10;;;;;;4963146;28;20430;-82
2021/11/25 07:24:34;;;;;;;25.03;17.87;;;2.70;57.10;;;;;;4972484;28;20410;-85
2021/11/25 07:27:01;;;;;;;25.13;18.50;;;2.70;57.20;;;;;;4972287;28;20715;-83
2021/11/25 07:29:28;;;;;;;24.90;17.90;;;2.80;57.40;;;;;;4971616;28;20541;-83
2021/11/25 07:31:53;;;;;;;20.90;16.53;;;2.80;57.10;;;;;;4971711;28;21094;-84
2021/11/25 07:34:19;;;;;;;19.40;16.37;;;2.80;57.40;;;;;;4961727;28;20444;-84
2021/11/25 07:36:45;;;;;;;21.77;17.60;;;2.90;57.10;;;;;;4953796;29;20207;-83
2021/11/25 07:39:11;;;;;;;21.97;17.77;;;2.90;57.50;;;;;;4966636;28;20187;-83
2021/11/25 07:41:38;;;;;;;22.77;19.20;;;2.90;57.00;;;;;;4954191;29;20461;-84
2021/11/25 07:44:05;;;;;;;23.63;18.20;;;2.80;57.10;;;;;;4969193;28;20205;-82
2021/11/25 07:46:31;;;;;;;20.50;16.77;;;2.80;57.70;;;;;;4953936;28;20438;-83
2021/11/25 07:48:58;;;;;;;23.93;18.83;;;2.90;57.60;;;;;;4953896;28;20490;-80
2021/11/25 07:51:24;;;;;;;21.60;17.23;;;3.00;57.50;;;;;;4963958;28;20426;-83
2021/11/25 07:53:50;;;;;;;24.80;18.30;;;3.00;57.40;;;;;;4972718;28;20529;-84
2021/11/25 07:56:16;;;;;;;20.83;16.53;;;3.10;57.20;;;;;;4973204;28;20457;-83
2021/11/25 07:58:41;;;;;;;24.20;18.17;;;3.10;56.60;;;;;;4972674;28;20182;-83
2021/11/25 08:01:07;;;;;;;23.40;16.90;;;3.00;56.80;;;;;;4972977;28;20277;-84
2021/11/25 08:03:33;;;;;;;23.30;17.47;;;3.00;56.10;;;;;;4972629;28;20275;-84
2021/11/25 08:05:59;;;;;;;24.90;18.63;;;3.00;57.00;;;;;;4971611;28;20217;-84
2021/11/25 08:08:24;;;;;;;23.37;18.60;;;3.00;57.10;;;;;;4970970;28;20652;-84
2021/11/25 08:10:50;;;;;;;26.33;19.20;;;3.00;57.60;;;;;;4975001;28;20182;-83
2021/11/25 08:13:16;;;;;;;22.40;16.83;;;3.00;57.80;;;;;;4975421;28;20442;-82
2021/11/25 08:15:42;;;;;;;22.90;16.60;;;3.00;57.70;;;;;;4975953;28;20261;-82
2021/11/25 08:18:07;;;;;;;24.27;19.27;;;3.00;57.80;;;;;;4974203;28;20197;-84
2021/11/25 08:20:33;;;;;;;25.20;18.30;;;3.00;57.90;;;;;;4976011;28;20183;-82
2021/11/25 08:22:59;;;;;;;21.40;16.73;;;3.00;57.60;;;;;;4975140;28;20218;-85
2021/11/25 08:25:25;;;;;;;23.20;18.70;;;3.30;57.20;;;;;;4974414;28;20539;-83
2021/11/25 08:27:55;;;;;;;23.33;17.00;;;3.40;55.90;;;;;;4975429;28;20576;-85
2021/11/25 08:30:23;;;;;;;19.57;17.40;;;3.20;56.30;;;;;;4975451;28;20442;-83
2021/11/25 08:32:49;;;;;;;23.10;18.27;;;3.10;57.00;;;;;;4974107;28;20458;-83
2021/11/25 08:35:15;;;;;;;23.73;16.80;;;3.10;57.30;;;;;;4974921;28;20429;-83
2021/11/25 08:37:42;;;;;;;24.97;17.50;;;3.10;56.50;;;;;;4973303;28;20488;-83
2021/11/25 08:40:10;;;;;;;21.53;18.53;;;3.00;56.10;;;;;;4974610;28;20334;-82
2021/11/25 08:42:36;;;;;;;21.37;18.00;;;3.00;57.20;;;;;;4974595;28;20466;-82
2021/11/25 08:45:04;;;;;;;24.73;18.65;;;3.00;57.10;;;;;;4974258;28;20920;-82
2021/11/25 08:47:29;;;;;;;22.80;16.90;;;3.00;57.10;;;;;;4973161;28;20174;-83
2021/11/25 08:49:55;;;;;;;23.00;16.53;;;3.00;56.80;;;;;;4974433;28;20406;-85
2021/11/25 08:52:21;;;;;;;21.57;17.13;;;3.00;56.10;;;;;;4974243;28;20179;-85
2021/11/25 08:54:46;;;;;;;25.17;18.97;;;3.00;56.60;;;;;;4975110;28;20175;-85
2021/11/25 08:57:12;;;;;;;22.10;16.70;;;3.00;56.10;;;;;;4974267;28;20643;-85
2021/11/25 08:59:38;;;;;;;25.27;18.13;;;3.00;56.60;;;;;;4975045;28;20190;-87
2021/11/25 09:02:04;;;;;;;25.13;19.67;;;3.00;56.50;;;;;;4975065;28;20795;-87
2021/11/25 09:04:30;;;;;;;20.90;17.50;;;3.00;56.10;;;;;;4974186;28;20175;-86
2021/11/25 09:06:57;;;;;;;24.67;19.50;;;3.00;57.60;;;;;;4973153;28;20178;-86
2021/11/25 09:09:23;;;;;;;25.37;17.50;;;3.00;57.30;;;;;;4973723;28;20514;-85
2021/11/25 09:11:49;;;;;;;25.43;18.50;;;3.10;56.90;;;;;;4973917;28;20937;-86
2021/11/25 09:14:15;;;;;;;25.57;19.33;;;3.00;57.10;;;;;;4974791;28;20403;-86
2021/11/25 09:16:42;;;;;;;24.90;19.20;;;3.00;56.20;;;;;;4973419;28;20785;-86
2021/11/25 09:19:08;;;;;;;23.40;16.87;;;3.10;56.40;;;;;;4974870;28;20194;-85
2021/11/25 09:21:34;;;;;;;22.90;17.10;;;3.10;55.00;;;;;;4972522;28;20476;-85
2021/11/25 09:24:04;;;;;;;29.30;20.10;;;2.90;56.10;;;;;;4975145;28;20801;-85
2021/11/25 09:26:30;;;;;;;23.07;18.00;;;3.10;56.20;;;;;;4975201;28;20250;-85
2021/11/25 09:28:58;;;;;;;24.57;17.13;;;3.20;55.90;;;;;;4973516;28;20773;-85
2021/11/25 09:31:29;;;;;;;20.17;16.30;;;3.20;55.40;;;;;;4974201;28;20454;-87
2021/11/25 09:33:55;;;;;;;22.73;17.27;;;3.10;55.00;;;;;;4973793;28;20491;-87
2021/11/25 09:36:23;;;;;;;22.77;18.10;;;3.10;55.30;;;;;;4973458;28;20525;-87
2021/11/25 09:38:49;;;;;;;25.17;19.90;;;3.20;55.50;;;;;;4971483;28;20437;-86
2021/11/25 09:41:15;;;;;;;24.37;18.33;;;3.10;55.20;;;;;;4974450;28;20479;-82
2021/11/25 09:43:42;;;;;;;25.47;20.40;;;3.20;54.80;;;;;;4974136;28;20458;-83
2021/11/25 09:46:09;;;;;;;23.43;18.10;;;3.10;56.10;;;;;;4973088;28;20422;-83
2021/11/25 09:48:37;;;;;;;22.00;17.07;;;3.10;55.90;;;;;;4973179;28;20768;-84
2021/11/25 09:51:03;;;;;;;23.53;19.00;;;3.10;56.20;;;;;;4972482;28;20798;-84
2021/11/25 09:53:29;;;;;;;23.10;18.47;;;3.20;55.40;;;;;;4973053;28;20845;-83
2021/11/25 09:55:59;;;;;;;23.00;19.13;;;3.20;54.40;;;;;;4974102;28;20593;-83
2021/11/25 09:58:28;;;;;;;21.00;17.70;;;3.20;54.00;;;;;;4974578;28;20162;-83
2021/11/25 10:01:02;;;;;;;23.30;19.33;;;3.20;53.70;;;;;;4975257;28;20461;-88
2021/11/25 10:03:28;;;;;;;23.17;19.07;;;3.10;53.50;;;;;;4975178;28;20441;-85
2021/11/25 10:05:56;;;;;;;24.93;20.63;;;3.20;54.30;;;;;;4975346;28;20406;-88
2021/11/25 10:08:25;;;;;;;23.53;19.97;;;3.30;53.50;;;;;;4974578;28;20853;-86
2021/11/25 10:11:05;;;;;;;22.27;18.27;;;3.30;53.90;;;;;;4973622;28;20418;-88
2021/11/25 10:13:38;;;;;;;24.93;18.43;;;3.30;52.70;;;;;;4965964;28;20462;-85
2021/11/25 10:16:07;;;;;;;22.60;17.33;;;3.20;53.50;;;;;;4974690;28;20828;-88
2021/11/25 10:18:35;;;;;;;23.37;19.23;;;3.20;54.30;;;;;;4973053;28;20422;-86
2021/11/25 10:21:09;;;;;;;20.90;16.67;;;3.30;54.50;;;;;;4974019;28;20420;-86
2021/11/25 10:23:36;;;;;;;24.00;18.37;;;3.30;53.70;;;;;;4973007;28;20464;-86
2021/11/25 10:26:12;;;;;;;23.40;18.73;;;3.30;53.90;;;;;;4974260;28;20494;-86
2021/11/25 10:28:44;;;;;;;23.70;19.30;;;3.40;53.90;;;;;;4974110;28;20413;-85
2021/11/25 10:31:11;;;;;;;24.23;19.20;;;3.40;54.20;;;;;;4974265;28;20414;-85
2021/11/25 10:33:54;;;;;;;24.53;19.03;;;3.50;54.30;;;;;;4973072;28;20497;-86
2021/11/25 10:36:54;;;;;;;24.80;20.67;;;3.60;53.20;;;;;;4973120;28;20421;-86
2021/11/25 10:41:50;;;;;;;22.63;18.90;;;3.60;52.00;;;;;;4973718;28;20918;-84
2021/11/25 10:44:26;;;;;;;24.40;18.00;;;3.60;52.60;;;;;;4972846;28;20424;-85
2021/11/25 10:46:56;;;;;;;28.83;18.57;;;3.50;52.50;;;;;;4973962;28;20410;-84
2021/11/25 10:49:41;;;;;;;29.63;20.43;;;3.50;52.80;;;;;;4973925;28;20461;-83
2021/11/25 10:52:12;;;;;;;22.87;18.07;;;3.50;53.10;;;;;;4973879;28;20410;-84
2021/11/25 10:54:49;;;;;;;21.17;18.33;;;3.50;53.20;;;;;;4974644;28;20778;-85
2021/11/25 10:57:16;;;;;;;21.00;16.40;;;3.50;52.20;;;;;;4974208;28;20566;-85
2021/11/25 10:59:45;;;;;;;20.23;16.60;;;3.50;51.70;;;;;;4974242;28;20441;-81
2021/11/25 11:02:29;;;;;;;18.83;16.03;;;3.50;51.10;;;;;;4973627;28;20450;-85
2021/11/25 11:05:00;;;;;;;22.80;17.20;;;3.40;50.70;;;;;;4973237;28;20747;-83
2021/11/25 11:07:35;;;;;;;21.00;16.67;;;3.30;51.70;;;;;;4973288;28;20830;-83
2021/11/25 11:10:22;;;;;;;22.77;17.80;;;3.40;51.40;;;;;;4973622;28;20417;-84
2021/11/25 11:13:00;;;;;;;21.63;17.97;;;3.50;52.70;;;;;;4973251;28;20410;-85
2021/11/25 11:15:30;;;;;;;20.73;17.63;;;3.50;50.60;;;;;;4972147;28;20421;-84
2021/11/25 11:18:02;;;;;;;21.50;18.33;;;3.60;50.80;;;;;;4972978;28;20425;-84
2021/11/25 11:20:29;;;;;;;22.57;17.77;;;3.50;49.70;;;;;;4973076;28;20409;-83
2021/11/25 11:22:59;;;;;;;20.87;16.37;;;3.40;50.80;;;;;;4973423;28;20462;-84
2021/11/25 11:25:26;;;;;;;21.70;18.07;;;3.50;50.40;;;;;;4974072;28;20963;-83
2021/11/25 11:27:56;;;;;;;22.70;18.53;;;3.40;50.20;;;;;;4972420;28;20421;-82
2021/11/25 11:30:23;;;;;;;20.00;16.33;;;3.50;51.10;;;;;;4972023;28;20472;-82
2021/11/25 11:32:50;;;;;;;22.17;18.40;;;3.40;50.90;;;;;;4970742;28;20930;-81
2021/11/25 11:35:24;;;;;;;23.00;17.05;;;3.50;50.40;;;;;;4981811;28;20446;-82
2021/11/25 11:37:55;;;;;;;21.67;18.23;;;3.60;50.40;;;;;;4954007;28;20177;-82
2021/11/25 11:40:23;;;;;;;25.50;21.43;;;3.70;51.20;;;;;;4955287;28;20407;-82
2021/11/25 11:42:54;;;;;;;23.57;18.03;;;3.80;50.70;;;;;;4969247;28;20462;-82
2021/11/25 11:45:22;;;;;;;21.13;18.00;;;3.80;50.40;;;;;;4957348;28;20402;-82
2021/11/25 11:47:54;;;;;;;21.53;17.37;;;3.80;48.90;;;;;;4972423;28;20489;-82
2021/11/25 11:50:44;;;;;;;18.83;15.70;;;3.70;49.80;;;;;;4957396;28;20946;-82
2021/11/25 11:53:14;;;;;;;20.47;17.47;;;3.80;50.30;;;;;;4955825;29;20423;-82
2021/11/25 11:55:42;;;;;;;20.53;17.50;;;3.90;49.90;;;;;;4956729;28;20468;-82
2021/11/25 11:58:33;;;;;;;22.27;17.10;;;3.90;49.90;;;;;;4971371;28;20939;-81
2021/11/25 12:01:14;;;;;;;20.40;17.00;;;4.00;49.80;;;;;;4956073;29;20431;-82
2021/11/25 12:03:44;;;;;;;23.50;19.00;;;3.90;49.90;;;;;;4956360;29;21001;-82
2021/11/25 12:06:10;;;;;;;20.83;17.30;;;3.90;50.00;;;;;;4972197;28;20774;-82
2021/11/25 12:08:35;;;;;;;20.60;17.23;;;3.90;49.30;;;;;;4971594;28;20429;-82
2021/11/25 12:11:01;;;;;;;20.50;16.73;;;3.90;49.80;;;;;;4955538;29;20518;-82
2021/11/25 12:13:30;;;;;;;24.33;17.53;;;3.90;50.30;;;;;;4955318;28;20191;-83
2021/11/25 12:16:20;;;;;;;24.00;19.40;;;4.00;49.70;;;;;;4971788;28;20194;-82
2021/11/25 12:18:52;;;;;;;25.80;19.40;;;4.00;49.30;;;;;;4971190;28;20415;-81
2021/11/25 12:21:31;;;;;;;23.23;18.90;;;3.90;49.80;;;;;;4971288;28;20426;-82
2021/11/25 12:24:24;;;;;;;28.17;19.30;;;3.80;49.70;;;;;;4955465;29;20470;-83
2021/11/25 12:27:35;;;;;;;22.90;19.63;;;3.80;50.70;;;;;;4950613;28;20829;-82
2021/11/25 12:30:07;;;;;;;23.00;19.37;;;3.90;50.00;;;;;;4894388;29;20964;-82
2021/11/25 12:35:20;;;;;;;22.60;18.80;;;3.70;49.10;;;;;;4957236;29;20403;-82
2021/11/25 12:37:59;;;;;;;19.40;17.30;;;3.60;50.50;;;;;;4972608;28;20911;-82
2021/11/25 12:40:24;;;;;;;22.70;18.77;;;3.60;50.60;;;;;;4972611;28;20763;-82
2021/11/25 12:43:02;;;;;;;25.13;19.17;;;3.70;50.90;;;;;;4976424;28;20454;-82
2021/11/25 12:45:49;;;;;;;23.37;18.17;;;3.60;50.60;;;;;;4976483;28;20198;-82
2021/11/25 12:48:34;;;;;;;26.07;19.77;;;3.70;51.20;;;;;;4975979;28;20918;-82
2021/11/25 12:51:26;;;;;;;24.40;19.83;;;3.70;52.00;;;;;;4976305;28;20398;-82